createdAt,value
2023-11-18T00:00:13.292Z,13.55
2023-11-18T00:02:40.516Z,14.43
2023-11-18T00:05:08.536Z,13.13
2023-11-18T00:07:35.161Z,16.60
2023-11-18T00:10:01.842Z,11.18
2023-11-18T00:12:28.318Z,17.42
2023-11-18T00:14:54.828Z,16.77
2023-11-18T00:17:21.774Z,15.00
2023-11-18T00:19:48.580Z,10.95
2023-11-18T00:22:15.210Z,10.45
2023-11-18T00:24:41.673Z,12.63
2023-11-18T00:27:08.156Z,13.63
2023-11-18T00:29:35.216Z,12.55
2023-11-18T00:32:05.463Z,13.77
2023-11-18T00:34:32.061Z,12.93
2023-11-18T00:36:58.791Z,12.95
2023-11-18T00:39:25.948Z,18.98
2023-11-18T00:41:52.464Z,15.18
2023-11-18T00:44:19.314Z,17.98
2023-11-18T00:46:45.969Z,14.23
2023-11-18T00:49:12.611Z,12.13
2023-11-18T00:51:39.227Z,13.60
2023-11-18T00:54:08.750Z,15.85
2023-11-18T00:56:35.282Z,14.43
2023-11-18T00:59:05.157Z,11.98
2023-11-18T01:01:33.325Z,15.48
2023-11-18T01:04:00.533Z,14.25
2023-11-18T01:06:27.757Z,18.20
2023-11-18T01:08:54.507Z,15.77
2023-11-18T01:11:21.131Z,9.93
2023-11-18T01:13:48.061Z,11.95
2023-11-18T01:16:16.036Z,12.10
2023-11-18T01:18:43.308Z,12.38
2023-11-18T01:21:10.319Z,12.60
2023-11-18T01:23:37.119Z,14.35
2023-11-18T01:26:06.126Z,13.27
2023-11-18T01:28:42.304Z,15.48
2023-11-18T01:31:11.968Z,19.33
2023-11-18T01:33:41.065Z,15.20
2023-11-18T01:36:09.548Z,14.20
2023-11-18T01:38:36.695Z,13.10
2023-11-18T01:41:04.081Z,13.80
2023-11-18T01:43:32.989Z,14.02
2023-11-18T01:46:02.447Z,15.95
2023-11-18T01:48:29.766Z,10.30
2023-11-18T01:50:58.882Z,14.07
2023-11-18T01:53:25.573Z,12.82
2023-11-18T01:55:52.145Z,14.23
2023-11-18T01:58:20.956Z,18.20
2023-11-18T02:00:47.791Z,13.27
2023-11-18T02:03:14.346Z,16.38
2023-11-18T02:05:41.106Z,13.63
2023-11-18T02:08:10.592Z,16.13
2023-11-18T02:10:45.349Z,13.02
2023-11-18T02:13:14.266Z,14.25
2023-11-18T02:15:41.919Z,15.13
2023-11-18T02:18:12.537Z,15.75
2023-11-18T02:20:40.132Z,13.40
2023-11-18T02:23:08.704Z,14.73
2023-11-18T02:25:35.612Z,15.27
2023-11-18T02:28:02.211Z,14.00
2023-11-18T02:30:31.977Z,16.20
2023-11-18T02:33:01.095Z,13.05
2023-11-18T02:35:39.319Z,14.93
2023-11-18T02:38:11.508Z,15.93
2023-11-18T02:40:42.409Z,14.27
2023-11-18T02:43:10.474Z,17.73
2023-11-18T02:45:37.594Z,16.05
2023-11-18T02:48:05.816Z,11.85
2023-11-18T02:50:32.942Z,11.98
2023-11-18T02:52:59.862Z,16.88
2023-11-18T02:55:27.218Z,14.38
2023-11-18T02:57:53.809Z,16.63
2023-11-18T03:00:22.847Z,22.17
2023-11-18T03:02:51.145Z,13.23
2023-11-18T03:05:17.780Z,13.65
2023-11-18T03:07:45.775Z,15.50
2023-11-18T03:10:21.875Z,19.45
2023-11-18T03:12:48.959Z,19.35
2023-11-18T03:15:17.840Z,17.85
2023-11-18T03:17:49.261Z,22.05
2023-11-18T03:20:18.023Z,15.18
2023-11-18T03:22:46.017Z,15.20
2023-11-18T03:25:15.386Z,17.17
2023-11-18T03:27:41.977Z,13.95
2023-11-18T03:30:09.531Z,16.30
2023-11-18T03:32:36.642Z,16.27
2023-11-18T03:35:04.255Z,17.15
2023-11-18T03:37:30.929Z,17.52
2023-11-18T03:39:57.446Z,16.77
2023-11-18T03:42:23.976Z,15.40
2023-11-18T03:44:50.410Z,14.95
2023-11-18T03:47:16.922Z,14.70
2023-11-18T03:49:43.435Z,17.35
2023-11-18T03:52:09.914Z,15.95
2023-11-18T03:54:36.398Z,16.23
2023-11-18T03:57:02.894Z,20.23
2023-11-18T03:59:29.406Z,17.88
2023-11-18T04:01:56.029Z,17.98
2023-11-18T04:04:22.569Z,17.00
2023-11-18T04:06:49.101Z,16.60
2023-11-18T04:09:15.653Z,15.25
2023-11-18T04:11:45.889Z,14.48
2023-11-18T04:14:13.071Z,12.95
2023-11-18T04:16:39.774Z,15.63
2023-11-18T04:19:07.259Z,16.05
2023-11-18T04:21:33.769Z,15.02
2023-11-18T04:24:00.260Z,16.40
2023-11-18T04:26:26.798Z,14.57
2023-11-18T04:28:53.635Z,15.48
2023-11-18T04:31:20.163Z,15.27
2023-11-18T04:33:46.644Z,16.17
2023-11-18T04:36:14.666Z,17.27
2023-11-18T04:38:41.222Z,13.63
2023-11-18T04:41:08.106Z,13.23
2023-11-18T04:43:42.527Z,17.77
2023-11-18T04:46:12.224Z,16.20
2023-11-18T04:48:41.711Z,17.95
2023-11-18T04:51:09.192Z,15.57
2023-11-18T04:53:35.728Z,15.68
2023-11-18T04:56:02.463Z,20.83
2023-11-18T04:58:29.612Z,15.13
2023-11-18T05:00:56.220Z,13.38
2023-11-18T05:03:23.016Z,13.88
2023-11-18T05:05:50.928Z,13.65
2023-11-18T05:08:22.835Z,16.45
2023-11-18T05:10:49.994Z,17.58
2023-11-18T05:13:17.716Z,13.98
2023-11-18T05:15:48.241Z,16.77
2023-11-18T05:18:17.681Z,16.38
2023-11-18T05:20:47.685Z,18.00
2023-11-18T05:23:14.329Z,18.77
2023-11-18T05:25:41.243Z,13.98
2023-11-18T05:28:11.050Z,19.15
2023-11-18T05:30:37.932Z,15.13
2023-11-18T05:33:06.767Z,16.00
2023-11-18T05:35:34.073Z,15.02
2023-11-18T05:38:01.275Z,16.17
2023-11-18T05:40:30.184Z,14.95
2023-11-18T05:42:56.759Z,13.95
2023-11-18T05:45:29.712Z,12.60
2023-11-18T05:47:56.917Z,14.73
2023-11-18T05:50:25.784Z,13.00
2023-11-18T05:52:52.376Z,12.80
2023-11-18T05:55:18.862Z,12.85
2023-11-18T05:57:46.158Z,12.80
2023-11-18T06:00:20.784Z,11.32
2023-11-18T06:02:52.908Z,14.77
2023-11-18T06:05:19.551Z,14.93
2023-11-18T06:07:46.067Z,10.43
2023-11-18T06:10:13.646Z,9.23
2023-11-18T06:12:42.222Z,10.45
2023-11-18T06:15:10.344Z,12.20
2023-11-18T06:17:38.227Z,13.38
2023-11-18T06:20:07.611Z,11.98
2023-11-18T06:22:34.438Z,10.93
2023-11-18T06:25:00.996Z,14.35
2023-11-18T06:27:28.399Z,10.65
2023-11-18T06:29:56.155Z,11.73
2023-11-18T06:32:22.889Z,12.68
2023-11-18T06:34:50.605Z,13.48
2023-11-18T06:37:18.208Z,9.48
2023-11-18T06:39:49.903Z,13.48
2023-11-18T06:42:16.502Z,12.48
2023-11-18T06:44:43.127Z,14.90
2023-11-18T06:47:09.710Z,11.57
2023-11-18T06:49:36.337Z,14.57
2023-11-18T06:52:06.271Z,16.42
2023-11-18T06:54:34.422Z,13.07
2023-11-18T06:57:01.122Z,15.98
2023-11-18T06:59:27.811Z,10.90
2023-11-18T07:01:54.709Z,13.80
2023-11-18T07:04:21.280Z,14.20
2023-11-18T07:06:47.816Z,10.43
2023-11-18T07:09:15.496Z,16.80
2023-11-18T07:11:42.456Z,15.88
2023-11-18T07:14:10.483Z,14.75
2023-11-18T07:16:38.586Z,14.07
2023-11-18T07:19:05.153Z,11.70
2023-11-18T07:21:31.722Z,11.57
2023-11-18T07:23:58.793Z,11.70
2023-11-18T07:26:25.283Z,11.35
2023-11-18T07:28:53.058Z,9.82
2023-11-18T07:31:19.972Z,11.10
2023-11-18T07:33:50.288Z,13.40
2023-11-18T07:36:17.302Z,11.65
2023-11-18T07:38:43.820Z,12.88
2023-11-18T07:41:10.726Z,11.07
2023-11-18T07:43:38.024Z,13.40
2023-11-18T07:46:04.918Z,10.85
2023-11-18T07:48:32.446Z,11.98
2023-11-18T07:50:58.967Z,12.70
2023-11-18T07:53:25.518Z,14.15
2023-11-18T07:55:52.023Z,11.18
2023-11-18T07:58:19.735Z,10.10
2023-11-18T08:00:50.403Z,10.85
2023-11-18T08:03:17.085Z,10.30
2023-11-18T08:05:44.967Z,11.48
2023-11-18T08:08:12.172Z,11.45
2023-11-18T08:10:39.776Z,10.90
2023-11-18T08:13:08.124Z,9.38
2023-11-18T08:15:48.542Z,10.77
2023-11-18T08:18:15.221Z,12.77
2023-11-18T08:20:42.637Z,9.68
2023-11-18T08:23:09.391Z,12.25
2023-11-18T08:25:37.203Z,13.27
2023-11-18T08:28:05.891Z,14.27
2023-11-18T08:30:33.189Z,10.50
2023-11-18T08:33:00.233Z,11.80
2023-11-18T08:35:27.575Z,12.20
2023-11-18T08:37:54.072Z,11.18
2023-11-18T08:40:23.311Z,14.82
2023-11-18T08:42:51.851Z,16.33
2023-11-18T08:45:29.242Z,14.00
2023-11-18T08:47:56.512Z,15.23
2023-11-18T08:50:26.974Z,14.68
2023-11-18T08:53:00.355Z,14.02
2023-11-18T08:55:40.491Z,14.73
2023-11-18T08:58:21.652Z,14.35
2023-11-18T09:00:52.039Z,14.40
2023-11-18T09:03:25.712Z,13.18
2023-11-18T09:05:59.736Z,16.27
2023-11-18T09:08:33.267Z,13.27
2023-11-18T09:11:00.993Z,17.58
2023-11-18T09:13:31.108Z,12.93
2023-11-18T09:15:58.184Z,16.27
2023-11-18T09:18:26.341Z,12.38
2023-11-18T09:20:53.721Z,12.15
2023-11-18T09:23:20.590Z,12.50
2023-11-18T09:25:48.046Z,13.77
2023-11-18T09:28:16.127Z,14.43
2023-11-18T09:30:50.813Z,16.20
2023-11-18T09:33:26.640Z,11.25
2023-11-18T09:35:56.979Z,12.40
2023-11-18T09:38:23.892Z,9.50
2023-11-18T09:40:53.802Z,12.68
2023-11-18T09:43:23.107Z,14.02
2023-11-18T09:45:56.044Z,9.70
2023-11-18T09:48:26.512Z,12.65
2023-11-18T09:50:54.372Z,12.68
2023-11-18T09:53:21.669Z,9.00
2023-11-18T09:55:56.703Z,9.02
2023-11-18T09:58:25.390Z,10.68
2023-11-18T10:00:56.854Z,9.93
2023-11-18T10:03:24.026Z,9.05
2023-11-18T10:05:55.950Z,10.75
2023-11-18T10:08:27.089Z,10.10
2023-11-18T10:11:05.839Z,8.93
2023-11-18T10:13:35.270Z,8.70
2023-11-18T10:16:02.754Z,10.60
2023-11-18T10:18:29.955Z,10.77
2023-11-18T10:20:58.090Z,13.15
2023-11-18T10:23:28.754Z,9.48
2023-11-18T10:25:58.195Z,10.40
2023-11-18T10:28:24.952Z,8.45
2023-11-18T10:30:52.140Z,7.70
2023-11-18T10:33:18.934Z,6.90
2023-11-18T10:35:56.881Z,9.80
2023-11-18T10:38:26.924Z,9.57
2023-11-18T10:40:54.103Z,7.22
2023-11-18T10:43:20.839Z,7.22
2023-11-18T10:45:48.131Z,8.88
2023-11-18T10:48:17.603Z,7.43
2023-11-18T10:50:46.640Z,11.73
2023-11-18T10:53:14.844Z,10.93
2023-11-18T10:55:41.509Z,9.23
2023-11-18T10:58:11.015Z,9.10
2023-11-18T11:00:48.856Z,9.25
2023-11-18T11:03:15.918Z,7.95
2023-11-18T11:05:43.573Z,8.98
2023-11-18T11:08:14.170Z,11.02
2023-11-18T11:10:44.190Z,11.85
2023-11-18T11:13:12.244Z,11.45
2023-11-18T11:15:54.911Z,9.75
2023-11-18T11:18:29.501Z,9.75
2023-11-18T11:21:08.626Z,9.98
2023-11-18T11:23:50.852Z,14.15
2023-11-18T11:26:41.546Z,8.40
2023-11-18T11:29:29.632Z,9.63
2023-11-18T11:32:17.658Z,9.70
2023-11-18T11:34:51.125Z,8.00
2023-11-18T11:37:18.846Z,9.93
2023-11-18T11:39:48.120Z,10.38
2023-11-18T11:42:19.002Z,7.57
2023-11-18T11:44:45.602Z,7.97
2023-11-18T11:47:16.785Z,7.72
2023-11-18T11:49:51.639Z,6.55
2023-11-18T11:52:39.171Z,5.90
2023-11-18T11:55:14.051Z,7.95
2023-11-18T11:57:43.742Z,7.90
2023-11-18T12:00:16.612Z,9.18
2023-11-18T12:02:50.536Z,7.32
2023-11-18T12:05:20.459Z,13.18
2023-11-18T12:07:48.344Z,8.27
2023-11-18T12:10:21.766Z,8.50
2023-11-18T12:12:49.096Z,8.02
2023-11-18T12:15:21.793Z,10.70
2023-11-18T12:17:58.794Z,8.70
2023-11-18T12:20:48.504Z,9.15
2023-11-18T12:23:16.089Z,7.78
2023-11-18T12:25:43.113Z,8.88
2023-11-18T12:28:10.709Z,11.18
2023-11-18T12:30:38.813Z,7.50
2023-11-18T12:33:12.639Z,6.55
2023-11-18T12:35:54.151Z,8.15
2023-11-18T12:38:29.962Z,8.48
2023-11-18T12:40:57.708Z,8.75
2023-11-18T12:43:50.140Z,9.18
2023-11-18T12:46:16.648Z,10.70
2023-11-18T12:48:47.741Z,6.95
2023-11-18T12:51:20.487Z,7.65
2023-11-18T12:53:54.974Z,7.55
2023-11-18T12:56:21.722Z,6.25
2023-11-18T12:58:48.734Z,7.07
2023-11-18T13:01:17.180Z,4.50
2023-11-18T13:03:45.347Z,8.18
2023-11-18T13:06:15.439Z,4.75
2023-11-18T13:08:42.408Z,5.63
2023-11-18T13:11:13.699Z,13.27
2023-11-18T13:13:40.782Z,8.18
2023-11-18T13:16:10.074Z,5.25
2023-11-18T13:18:43.069Z,7.55
2023-11-18T13:21:12.156Z,9.13
2023-11-18T13:23:38.585Z,5.03
2023-11-18T13:26:06.796Z,7.20
2023-11-18T13:28:33.498Z,8.15
2023-11-18T13:30:59.970Z,6.80
2023-11-18T13:33:26.522Z,12.30
2023-11-18T13:35:53.113Z,7.93
2023-11-18T13:38:19.884Z,9.27
2023-11-18T13:40:48.325Z,14.05
2023-11-18T13:43:15.123Z,9.43
2023-11-18T13:45:41.999Z,10.68
2023-11-18T13:48:09.935Z,8.90
2023-11-18T13:50:38.835Z,9.43
2023-11-18T13:53:06.980Z,9.38
2023-11-18T13:55:33.941Z,10.27
2023-11-18T13:58:00.500Z,14.20
2023-11-18T14:00:32.619Z,9.25
2023-11-18T14:03:00.587Z,11.52
2023-11-18T14:05:27.494Z,7.53
2023-11-18T14:07:56.960Z,6.15
2023-11-18T14:10:25.974Z,7.43
2023-11-18T14:13:10.522Z,7.38
2023-11-18T14:15:36.987Z,8.25
2023-11-18T14:18:04.089Z,9.10
2023-11-18T14:20:32.363Z,8.80
2023-11-18T14:23:03.056Z,10.52
2023-11-18T14:25:30.105Z,12.10
2023-11-18T14:27:57.422Z,10.55
2023-11-18T14:30:26.643Z,11.07
2023-11-18T14:32:53.536Z,8.02
2023-11-18T14:35:20.106Z,12.02
2023-11-18T14:37:46.713Z,10.57
2023-11-18T14:40:17.067Z,10.02
2023-11-18T14:42:46.989Z,10.45
2023-11-18T14:45:14.236Z,10.23
2023-11-18T14:47:48.445Z,11.63
2023-11-18T14:50:21.373Z,10.55
2023-11-18T14:52:49.883Z,9.90
2023-11-18T14:55:18.463Z,18.40
2023-11-18T14:57:45.880Z,13.18
2023-11-18T15:00:23.434Z,11.90
2023-11-18T15:02:52.496Z,10.95
2023-11-18T15:05:20.832Z,11.55
2023-11-18T15:07:48.986Z,9.60
2023-11-18T15:10:22.477Z,8.70
2023-11-18T15:12:50.462Z,8.60
2023-11-18T15:15:19.957Z,12.98
2023-11-18T15:17:48.475Z,37.10
2023-11-18T15:20:19.663Z,22.30
2023-11-18T15:22:47.182Z,25.20
2023-11-18T15:25:14.273Z,23.38
2023-11-18T15:27:41.703Z,26.15
2023-11-18T15:30:11.545Z,13.35
2023-11-18T15:32:47.638Z,19.30
2023-11-18T15:35:15.618Z,18.55
2023-11-18T15:37:47.069Z,12.98
2023-11-18T15:40:20.788Z,13.55
2023-11-18T15:42:49.728Z,18.75
2023-11-18T15:45:19.633Z,19.30
2023-11-18T15:47:47.388Z,23.50
2023-11-18T15:50:16.321Z,20.65
2023-11-18T15:52:43.354Z,20.67
2023-11-18T15:55:15.195Z,14.50
2023-11-18T15:57:45.910Z,16.15
2023-11-18T16:00:17.437Z,11.13
2023-11-18T16:02:46.049Z,9.32
2023-11-18T16:05:17.002Z,11.18
2023-11-18T16:07:44.251Z,12.77
2023-11-18T16:10:11.744Z,11.23
2023-11-18T16:12:38.862Z,14.75
2023-11-18T16:15:07.069Z,17.75
2023-11-18T16:17:34.239Z,15.98
2023-11-18T16:20:01.023Z,11.68
2023-11-18T16:22:27.533Z,15.68
2023-11-18T16:24:54.054Z,14.55
2023-11-18T16:27:20.629Z,16.15
2023-11-18T16:29:47.123Z,14.70
2023-11-18T16:32:13.742Z,16.13
2023-11-18T16:34:40.290Z,26.08
2023-11-18T16:37:06.876Z,23.27
2023-11-18T16:39:34.211Z,21.63
2023-11-18T16:42:00.849Z,24.10
2023-11-18T16:44:27.549Z,24.17
2023-11-18T16:46:54.217Z,17.08
2023-11-18T16:49:22.968Z,16.67
2023-11-18T16:51:54.091Z,17.85
2023-11-18T16:54:33.324Z,13.48
2023-11-18T16:57:06.448Z,18.05
2023-11-18T16:59:33.005Z,17.83
2023-11-18T17:01:59.576Z,21.02
2023-11-18T17:04:26.315Z,14.35
2023-11-18T17:06:53.042Z,14.88
2023-11-18T17:09:19.740Z,17.25
2023-11-18T17:11:49.616Z,16.65
2023-11-18T17:14:16.289Z,14.45
2023-11-18T17:16:45.660Z,14.50
2023-11-18T17:19:12.949Z,12.25
2023-11-18T17:21:39.427Z,13.90
2023-11-18T17:24:06.093Z,16.15
2023-11-18T17:26:40.240Z,21.30
2023-11-18T17:29:07.583Z,27.13
2023-11-18T17:31:35.483Z,16.92
2023-11-18T17:34:02.411Z,18.90
2023-11-18T17:36:28.942Z,15.98
2023-11-18T17:38:56.127Z,17.75
2023-11-18T17:41:22.962Z,16.80
2023-11-18T17:43:50.029Z,13.05
2023-11-18T17:46:16.796Z,13.07
2023-11-18T17:48:43.460Z,17.00
2023-11-18T17:51:10.092Z,14.13
2023-11-18T17:53:36.892Z,18.20
2023-11-18T17:56:03.548Z,13.25
2023-11-18T17:58:30.198Z,14.75
2023-11-18T18:00:56.718Z,12.25
2023-11-18T18:03:23.307Z,12.93
2023-11-18T18:05:49.942Z,13.90
2023-11-18T18:08:16.492Z,15.30
2023-11-18T18:10:43.037Z,15.25
2023-11-18T18:13:10.716Z,12.63
2023-11-18T18:15:37.270Z,14.73
2023-11-18T18:18:03.990Z,14.07
2023-11-18T18:20:30.601Z,15.65
2023-11-18T18:22:57.430Z,20.08
2023-11-18T18:25:24.048Z,29.63
2023-11-18T18:27:53.313Z,16.52
2023-11-18T18:30:19.948Z,14.73
2023-11-18T18:32:48.136Z,18.45
2023-11-18T18:35:15.720Z,14.73
2023-11-18T18:37:42.208Z,17.05
2023-11-18T18:40:09.581Z,18.35
2023-11-18T18:42:36.224Z,23.10
2023-11-18T18:45:02.788Z,50.85
2023-11-18T18:47:30.753Z,61.70
2023-11-18T18:49:57.645Z,38.45
2023-11-18T18:52:24.249Z,20.20
2023-11-18T18:54:50.969Z,26.58
2023-11-18T18:57:18.996Z,22.92
2023-11-18T18:59:45.576Z,27.73
2023-11-18T19:02:12.822Z,21.00
2023-11-18T19:04:39.593Z,16.58
2023-11-18T19:07:06.097Z,19.65
2023-11-18T19:09:32.664Z,19.35
2023-11-18T19:11:59.090Z,17.45
2023-11-18T19:14:25.821Z,19.63
2023-11-18T19:16:52.330Z,26.45
2023-11-18T19:19:19.796Z,15.82
2023-11-18T19:21:46.543Z,18.98
2023-11-18T19:24:15.621Z,20.15
2023-11-18T19:26:42.339Z,20.33
2023-11-18T19:29:09.154Z,20.75
2023-11-18T19:31:35.774Z,18.25
2023-11-18T19:34:02.500Z,20.13
2023-11-18T19:36:29.043Z,17.77
2023-11-18T19:38:55.501Z,22.08
2023-11-18T19:41:22.260Z,18.25
2023-11-18T19:43:50.077Z,16.58
2023-11-18T19:46:17.351Z,23.58
2023-11-18T19:48:44.443Z,19.73
2023-11-18T19:51:11.992Z,17.00
2023-11-18T19:53:38.681Z,16.63
2023-11-18T19:56:05.395Z,16.20
2023-11-18T19:58:32.989Z,19.70
2023-11-18T20:00:59.611Z,30.98
2023-11-18T20:03:26.625Z,22.85
2023-11-18T20:05:53.777Z,23.52
2023-11-18T20:08:20.707Z,30.40
2023-11-18T20:10:48.417Z,20.83
2023-11-18T20:13:16.007Z,26.70
2023-11-18T20:15:42.748Z,26.60
2023-11-18T20:18:12.327Z,32.50
2023-11-18T20:20:39.137Z,30.65
2023-11-18T20:23:06.064Z,35.75
2023-11-18T20:25:32.635Z,32.90
2023-11-18T20:27:59.145Z,26.17
2023-11-18T20:30:25.654Z,35.55
2023-11-18T20:32:53.044Z,23.98
2023-11-18T20:35:20.232Z,24.48
2023-11-18T20:37:48.893Z,26.50
2023-11-18T20:40:22.039Z,30.70
2023-11-18T20:42:51.924Z,30.02
2023-11-18T20:45:19.607Z,25.65
2023-11-18T20:47:47.053Z,26.65
2023-11-18T20:50:14.767Z,30.27
2023-11-18T20:52:44.599Z,28.33
2023-11-18T20:55:11.407Z,27.48
2023-11-18T20:57:38.527Z,25.10
2023-11-18T21:00:09.092Z,33.65
2023-11-18T21:02:36.335Z,28.67
2023-11-18T21:05:04.284Z,26.13
2023-11-18T21:07:30.905Z,27.58
2023-11-18T21:09:57.727Z,25.60
2023-11-18T21:12:25.031Z,27.67
2023-11-18T21:14:51.737Z,30.73
2023-11-18T21:17:18.795Z,24.02
2023-11-18T21:19:45.708Z,23.55
2023-11-18T21:22:14.226Z,25.85
2023-11-18T21:24:40.697Z,23.55
2023-11-18T21:27:08.177Z,26.20
2023-11-18T21:29:34.767Z,29.38
2023-11-18T21:32:03.050Z,25.58
2023-11-18T21:34:29.636Z,29.33
2023-11-18T21:36:56.113Z,29.08
2023-11-18T21:39:22.758Z,30.73
2023-11-18T21:41:49.302Z,28.70
2023-11-18T21:44:15.861Z,31.73
2023-11-18T21:46:42.373Z,28.83
2023-11-18T21:49:10.755Z,23.70
2023-11-18T21:51:38.600Z,24.88
2023-11-18T21:54:05.232Z,24.95
2023-11-18T21:56:37.600Z,25.73
2023-11-18T21:59:08.677Z,24.45
2023-11-18T22:01:35.588Z,26.55
2023-11-18T22:04:02.115Z,28.75
2023-11-18T22:06:29.991Z,28.02
2023-11-18T22:08:58.935Z,29.92
2023-11-18T22:11:25.856Z,25.40
2023-11-18T22:13:52.984Z,23.67
2023-11-18T22:16:20.345Z,26.50
2023-11-18T22:18:47.533Z,25.20
2023-11-18T22:21:14.015Z,23.80
2023-11-18T22:23:40.891Z,24.27
2023-11-18T22:26:08.555Z,23.63
2023-11-18T22:28:35.353Z,28.35
2023-11-18T22:31:03.847Z,25.52
2023-11-18T22:33:30.716Z,26.50
2023-11-18T22:35:57.349Z,26.73
2023-11-18T22:38:24.180Z,29.77
2023-11-18T22:40:50.877Z,30.58
2023-11-18T22:43:17.438Z,29.98
2023-11-18T22:45:44.507Z,27.60
2023-11-18T22:48:11.147Z,28.02
2023-11-18T22:50:39.695Z,27.63
2023-11-18T22:53:09.488Z,25.00
2023-11-18T22:55:39.512Z,30.73
2023-11-18T22:58:06.226Z,28.08
2023-11-18T23:00:51.591Z,34.15
2023-11-18T23:03:18.961Z,27.08
2023-11-18T23:05:45.650Z,25.80
2023-11-18T23:08:17.917Z,28.13
2023-11-18T23:10:45.073Z,32.00
2023-11-18T23:13:12.791Z,25.75
2023-11-18T23:15:41.005Z,26.20
2023-11-18T23:18:08.343Z,28.30
2023-11-18T23:20:37.513Z,29.58
2023-11-18T23:23:04.514Z,26.58
2023-11-18T23:25:31.039Z,27.80
2023-11-18T23:28:02.806Z,27.33
2023-11-18T23:30:30.899Z,29.67
2023-11-18T23:32:57.796Z,33.30
2023-11-18T23:35:24.475Z,32.03
2023-11-18T23:37:52.428Z,31.90
2023-11-18T23:40:20.771Z,29.30
2023-11-18T23:42:48.787Z,33.90
2023-11-18T23:45:15.684Z,36.55
2023-11-18T23:47:42.853Z,28.38
2023-11-18T23:50:09.823Z,34.45
2023-11-18T23:52:36.543Z,30.05
2023-11-18T23:55:03.263Z,31.60
2023-11-18T23:57:30.457Z,36.17
2023-11-18T23:59:56.994Z,34.45
